Impacts METAR Board
IDs:

KCLE - Cleveland/Hopkins In, OH, US

Updated at: 0200 UTC 19 Feb 2019
Potential Impact None Slight Moderate High
Time 18/14Z 18/15Z 18/16Z 18/17Z 18/18Z 18/19Z 18/20Z 18/21Z 18/22Z 18/23Z 19/00Z 19/01Z 19/02Z
Temp23 24 24 24 24 24 24 26 25 23 22 23 21
Dewpt19 19 19 19 18 18 18 17 15 18 17 17 15
Altim30.08 30.11 30.16 30.20 30.23 30.25 30.29 30.31 30.35 30.39 30.43 30.46 30.49
VIS1 5 3 1.75 4 3 2 10 10 4 10 10 9
CIG11 11 12 12 14 23 20 24 -- 33 -- 34 24
CoverOVCOVCOVCOVCOVCOVCOVCOVCSCTBKNFEWOVCBKN
FltCatIFRMVFRMVFRIFRMVFRMVFRIFRMVFRVFRMVFRVFRVFRMVFR
WX-SN BR-SN-SN-SN-SN-SN-SN-----SN------
WDir33032031030033033031033033034034020360
WSpd8 9 9 9 11 9 8 13 7 5 4 3 4
WGst-- -- -- -- -- -- -- -- -- -- -- -- --
Raw hourly METARs
KCLE 181351Z 33008KT 1SM -SN BR OVC011 M05/M07 A3008 RMK AO2 SLP197 P0001 T10501072
KCLE 181451Z 32009KT 5SM -SN OVC011 M04/M07 A3011 RMK AO2 SLP206 P0000 60001 T10441072 51036
KCLE 181605Z 31009KT 3SM -SN BKN012 OVC018 M04/M07 A3016 RMK AO2 P0000 T10441072
KCLE 181653Z 30009KT 1 3/4SM -SN BKN012 OVC019 M04/M07 A3020 RMK AO2 P0000 T10441072
KCLE 181751Z 33011KT 4SM -SN BKN014 OVC019 M04/M08 A3023 RMK AO2 SLP249 4/001 P0000 60002 T10441078 11044 21050 53028
KCLE 181901Z 33009KT 3SM -SN SCT017 BKN023 OVC028 M04/M08 A3025 RMK AO2 P0000 T10441078
KCLE 181951Z 31008KT 2SM -SN OVC020 M04/M08 A3029 RMK AO2 SLP267 P0000 T10441078
KCLE 182051Z 33013KT 10SM BKN024 OVC034 M03/M08 A3031 RMK AO2 SNE45 SLP276 P0000 60000 T10331083 51022
KCLE 182151Z 33007KT 10SM SCT028 M04/M09 A3035 RMK AO2 SLP287 T10391094
KCLE 182305Z 34005KT 4SM -SN SCT014 SCT027 BKN033 M05/M08 A3039 RMK AO2 P0000 T10501078
KCLE 182351Z 34004KT 10SM FEW045 M06/M08 A3043 RMK AO2 SNE12 SLP315 4/001 P0000 60000 T10561083 11033 21056 53027
KCLE 190051Z 02003KT 10SM OVC034 M05/M08 A3046 RMK AO2 SLP326 T10501083 $
KCLE 190151Z 36004KT 9SM BKN024 M06/M09 A3049 RMK AO2 SNB04E46 SLP337 P0000 T10611094 $



Page loaded:  02:51 UTC  |   06:51 PM Pacific  |   07:51 PM Mountain  |   08:51 PM Central  |   09:51 PM Eastern

 

ADVISORIES

FORECASTS

FORECASTS

OBSERVATIONS

USER TOOLS

ABOUT US